Time;durP1;ratioP1;P1;durP2;ratioP2;P2;SDS_P1;SDS_P2;PMS_P1;PMS_P2;Temp;Humidity;BMP_temperature;BMP_pressure;BME280_temperature;BME280_humidity;BME280_pressure;Samples;Min_cycle;Max_cycle;Signal;HPM_P1;HPM_P2
2021/10/03 00:02:12;;;;;;;26.98;14.48;;;;;;;;;;7395528;19;20019;-54
2021/10/03 00:04:42;;;;;;;16.27;11.63;;;;;;;;;;7395146;19;20010;-40
2021/10/03 00:07:11;;;;;;;22.23;13.00;;;;;;;;;;7395797;19;20021;-43
2021/10/03 00:09:39;;;;;;;20.83;12.38;;;;;;;;;;7393962;19;20056;-41
2021/10/03 00:12:07;;;;;;;24.83;11.95;;;;;;;;;;7394684;19;20493;-42
2021/10/03 00:14:34;;;;;;;37.33;19.65;;;;;;;;;;7399057;19;20081;-48
2021/10/03 00:17:02;;;;;;;34.67;17.33;;;;;;;;;;7394418;19;20054;-41
2021/10/03 00:19:30;;;;;;;25.60;15.38;;;;;;;;;;7394798;19;20010;-41
2021/10/03 00:21:57;;;;;;;23.48;14.23;;;;;;;;;;7395016;19;20014;-51
2021/10/03 00:24:26;;;;;;;21.45;12.30;;;;;;;;;;7394496;19;20007;-41
2021/10/03 00:26:54;;;;;;;16.23;11.07;;;;;;;;;;7394202;19;20040;-45
2021/10/03 00:29:23;;;;;;;14.38;10.18;;;;;;;;;;7394419;19;20014;-43
2021/10/03 00:31:52;;;;;;;21.23;11.13;;;;;;;;;;7392581;19;20030;-41
2021/10/03 00:34:19;;;;;;;21.60;13.05;;;;;;;;;;7393730;19;20010;-47
2021/10/03 00:36:47;;;;;;;14.15;10.20;;;;;;;;;;7393931;19;20022;-44
2021/10/03 00:39:14;;;;;;;23.25;13.10;;;;;;;;;;7393100;19;20483;-42
2021/10/03 00:41:43;;;;;;;13.43;9.13;;;;;;;;;;7394418;19;20026;-51
2021/10/03 00:44:11;;;;;;;14.80;8.55;;;;;;;;;;7394014;19;20023;-44
2021/10/03 00:46:39;;;;;;;15.00;10.05;;;;;;;;;;7393073;19;20021;-41
2021/10/03 00:49:06;;;;;;;17.95;10.65;;;;;;;;;;7393640;19;20490;-50
2021/10/03 00:51:34;;;;;;;27.73;16.02;;;;;;;;;;7395131;19;20011;-51
2021/10/03 00:54:01;;;;;;;28.23;14.73;;;;;;;;;;7392859;19;20066;-44
2021/10/03 00:56:29;;;;;;;20.25;12.32;;;;;;;;;;7392773;19;20017;-43
2021/10/03 00:58:56;;;;;;;23.08;12.30;;;;;;;;;;7391055;19;20006;-41
2021/10/03 01:01:24;;;;;;;15.20;10.90;;;;;;;;;;7393266;19;20010;-42
2021/10/03 01:03:51;;;;;;;13.55;9.82;;;;;;;;;;7391247;19;20034;-52
2021/10/03 01:06:19;;;;;;;25.30;13.73;;;;;;;;;;7393164;19;20014;-43
2021/10/03 01:08:46;;;;;;;16.63;10.70;;;;;;;;;;7392788;19;20007;-41
2021/10/03 01:11:13;;;;;;;22.60;13.90;;;;;;;;;;7389079;19;20022;-44
2021/10/03 01:13:44;;;;;;;19.88;12.85;;;;;;;;;;7394032;19;20366;-44
2021/10/03 01:16:13;;;;;;;17.42;10.25;;;;;;;;;;7393103;19;20082;-43
2021/10/03 01:18:43;;;;;;;22.95;12.23;;;;;;;;;;7393337;19;20007;-42
2021/10/03 01:21:11;;;;;;;15.65;9.93;;;;;;;;;;7391600;19;20014;-41
2021/10/03 01:23:38;;;;;;;16.38;10.68;;;;;;;;;;7392607;19;20034;-41
2021/10/03 01:26:06;;;;;;;17.83;12.18;;;;;;;;;;7392517;19;20017;-51
2021/10/03 01:28:34;;;;;;;17.80;12.35;;;;;;;;;;7392598;19;20014;-45
2021/10/03 01:31:06;;;;;;;74.47;32.45;;;;;;;;;;7392278;19;20017;-44
2021/10/03 01:33:34;;;;;;;44.17;21.63;;;;;;;;;;7390688;19;20022;-48
2021/10/03 01:36:05;;;;;;;29.85;16.65;;;;;;;;;;7391383;19;20010;-50
2021/10/03 01:38:34;;;;;;;23.58;14.18;;;;;;;;;;7391633;19;20031;-41
2021/10/03 01:41:03;;;;;;;20.00;12.75;;;;;;;;;;7392175;19;20003;-43
2021/10/03 01:43:30;;;;;;;27.27;14.30;;;;;;;;;;7391677;19;20006;-43
2021/10/03 01:45:58;;;;;;;18.08;11.95;;;;;;;;;;7391390;19;20013;-41
2021/10/03 01:48:45;;;;;;;15.25;10.52;;;;;;;;;;7392140;19;20028;-40
2021/10/03 01:51:13;;;;;;;29.23;15.98;;;;;;;;;;7392294;19;20035;-46
2021/10/03 01:53:53;;;;;;;17.95;12.13;;;;;;;;;;7392392;19;20031;-43
2021/10/03 01:56:22;;;;;;;16.77;11.35;;;;;;;;;;7391479;19;20483;-50
2021/10/03 01:58:56;;;;;;;24.13;13.60;;;;;;;;;;7391357;19;20010;-47
2021/10/03 02:01:29;;;;;;;14.88;10.55;;;;;;;;;;7388789;19;20010;-44
2021/10/03 02:03:57;;;;;;;15.45;9.52;;;;;;;;;;7395237;19;20036;-41
2021/10/03 02:06:25;;;;;;;18.10;10.77;;;;;;;;;;7391311;19;20031;-44
2021/10/03 02:08:55;;;;;;;12.75;10.15;;;;;;;;;;7391359;19;20054;-43
2021/10/03 02:11:27;;;;;;;17.23;12.02;;;;;;;;;;7389393;19;20021;-48
2021/10/03 02:13:54;;;;;;;17.30;12.10;;;;;;;;;;7391876;19;20018;-47
2021/10/03 02:16:22;;;;;;;23.75;13.35;;;;;;;;;;7389250;19;20023;-46
2021/10/03 02:18:50;;;;;;;19.00;11.30;;;;;;;;;;7391013;19;20094;-45
2021/10/03 02:21:18;;;;;;;14.88;10.50;;;;;;;;;;7390862;19;20062;-44
2021/10/03 02:23:45;;;;;;;110.18;45.38;;;;;;;;;;7390346;19;20013;-41
2021/10/03 02:26:13;;;;;;;44.17;22.52;;;;;;;;;;7390504;19;20030;-48
2021/10/03 02:28:41;;;;;;;27.60;16.15;;;;;;;;;;7390710;19;20487;-42
2021/10/03 02:31:11;;;;;;;25.02;13.65;;;;;;;;;;7390189;19;20007;-44
2021/10/03 02:33:41;;;;;;;30.30;11.25;;;;;;;;;;7395139;19;20034;-41
2021/10/03 02:36:09;;;;;;;12.27;8.38;;;;;;;;;;7398177;19;20023;-50
2021/10/03 02:38:37;;;;;;;33.75;9.77;;;;;;;;;;7397981;19;20011;-41
2021/10/03 02:41:07;;;;;;;17.30;9.68;;;;;;;;;;7394986;19;20607;-42
2021/10/03 02:43:36;;;;;;;11.00;8.02;;;;;;;;;;7397518;19;20680;-43
2021/10/03 02:46:05;;;;;;;30.88;8.98;;;;;;;;;;7397117;19;20774;-50
2021/10/03 02:48:35;;;;;;;15.45;9.77;;;;;;;;;;7397531;19;20018;-43
2021/10/03 02:51:03;;;;;;;16.95;9.30;;;;;;;;;;7397316;19;20014;-42
2021/10/03 02:53:30;;;;;;;31.48;11.57;;;;;;;;;;7395104;19;20022;-45
2021/10/03 02:55:58;;;;;;;19.10;10.88;;;;;;;;;;7397683;19;20006;-41
2021/10/03 02:58:25;;;;;;;51.65;11.77;;;;;;;;;;7397420;19;20018;-41
2021/10/03 03:00:53;;;;;;;13.23;8.65;;;;;;;;;;7394982;19;20014;-43
2021/10/03 03:03:21;;;;;;;81.20;14.90;;;;;;;;;;7397165;19;20014;-42
2021/10/03 03:05:49;;;;;;;22.05;12.98;;;;;;;;;;7396634;19;20007;-41
2021/10/03 03:08:17;;;;;;;20.60;12.15;;;;;;;;;;7396478;19;20336;-40
2021/10/03 03:10:44;;;;;;;13.93;9.80;;;;;;;;;;7395544;19;20355;-41
2021/10/03 03:13:12;;;;;;;72.30;13.32;;;;;;;;;;7398390;19;20034;-41
2021/10/03 03:15:39;;;;;;;177.65;20.00;;;;;;;;;;7397384;19;20010;-38
2021/10/03 03:18:07;;;;;;;16.45;9.85;;;;;;;;;;7396501;19;20034;-42
2021/10/03 03:20:34;;;;;;;16.77;9.75;;;;;;;;;;7394685;19;20010;-41
2021/10/03 03:23:02;;;;;;;65.57;13.43;;;;;;;;;;7399708;19;20006;-49
2021/10/03 03:25:30;;;;;;;78.30;12.95;;;;;;;;;;7395872;19;20372;-47
2021/10/03 03:27:58;;;;;;;27.30;11.00;;;;;;;;;;7395171;19;20007;-41
2021/10/03 03:30:25;;;;;;;14.75;9.70;;;;;;;;;;7395884;19;20019;-43
2021/10/03 03:32:52;;;;;;;17.73;10.15;;;;;;;;;;7395545;19;20006;-42
2021/10/03 03:35:20;;;;;;;48.60;20.60;;;;;;;;;;7396406;19;20025;-44
2021/10/03 03:37:48;;;;;;;34.42;16.90;;;;;;;;;;7396366;19;20014;-40
2021/10/03 03:40:16;;;;;;;20.38;11.20;;;;;;;;;;7394847;19;20505;-46
2021/10/03 03:42:44;;;;;;;15.20;9.73;;;;;;;;;;7394732;19;20015;-44
2021/10/03 03:45:12;;;;;;;16.77;10.38;;;;;;;;;;7395263;19;20014;-41
2021/10/03 03:47:40;;;;;;;16.13;10.02;;;;;;;;;;7395518;19;20030;-43
2021/10/03 03:50:11;;;;;;;23.88;11.23;;;;;;;;;;7395515;19;20030;-43
2021/10/03 03:52:40;;;;;;;20.27;12.75;;;;;;;;;;7399933;19;20011;-49
2021/10/03 03:55:08;;;;;;;15.25;10.38;;;;;;;;;;7394446;19;20011;-41
2021/10/03 03:57:36;;;;;;;15.68;10.55;;;;;;;;;;7393363;19;20380;-49
2021/10/03 04:00:07;;;;;;;26.65;10.63;;;;;;;;;;7394137;19;20027;-41
2021/10/03 04:02:34;;;;;;;20.70;10.52;;;;;;;;;;7395599;19;20014;-46
2021/10/03 04:05:02;;;;;;;34.47;13.23;;;;;;;;;;7395232;19;20014;-41
2021/10/03 04:07:30;;;;;;;34.95;11.45;;;;;;;;;;7394972;19;20003;-46
2021/10/03 04:09:57;;;;;;;21.58;12.07;;;;;;;;;;7394298;19;20038;-40
2021/10/03 04:12:24;;;;;;;17.17;10.55;;;;;;;;;;7394875;19;20037;-43
2021/10/03 04:14:52;;;;;;;53.20;25.77;;;;;;;;;;7396332;19;20038;-41
2021/10/03 04:17:19;;;;;;;40.95;17.77;;;;;;;;;;7394011;19;20010;-43
2021/10/03 04:19:47;;;;;;;24.33;12.60;;;;;;;;;;7393684;19;20507;-40
2021/10/03 04:22:14;;;;;;;18.98;11.07;;;;;;;;;;7395075;19;20019;-40
2021/10/03 04:24:42;;;;;;;25.80;14.10;;;;;;;;;;7394415;19;20027;-43
2021/10/03 04:27:09;;;;;;;16.15;10.45;;;;;;;;;;7393613;19;20018;-39
2021/10/03 04:29:36;;;;;;;24.13;12.48;;;;;;;;;;7394201;19;20010;-46
2021/10/03 04:32:04;;;;;;;17.02;11.10;;;;;;;;;;7394532;19;20010;-42
2021/10/03 04:34:31;;;;;;;27.35;13.43;;;;;;;;;;7394201;19;20114;-52
2021/10/03 04:36:59;;;;;;;16.05;10.40;;;;;;;;;;7394216;19;20478;-50
2021/10/03 04:39:26;;;;;;;22.13;12.35;;;;;;;;;;7393441;19;20014;-48
2021/10/03 04:41:53;;;;;;;29.95;12.75;;;;;;;;;;7393453;19;20013;-41
2021/10/03 04:44:21;;;;;;;17.65;10.57;;;;;;;;;;7393489;19;20014;-41
2021/10/03 04:46:48;;;;;;;19.05;12.15;;;;;;;;;;7393748;19;20022;-46
2021/10/03 04:49:15;;;;;;;18.27;10.13;;;;;;;;;;7393301;19;20034;-42
2021/10/03 04:51:43;;;;;;;16.45;10.20;;;;;;;;;;7395688;19;20011;-41
2021/10/03 04:54:10;;;;;;;16.70;9.23;;;;;;;;;;7393339;19;20097;-42
2021/10/03 04:56:37;;;;;;;16.15;10.10;;;;;;;;;;7391566;19;20078;-47
2021/10/03 04:59:05;;;;;;;14.18;8.88;;;;;;;;;;7393230;19;20015;-43
2021/10/03 05:01:32;;;;;;;19.52;10.15;;;;;;;;;;7391165;19;20022;-40
2021/10/03 05:04:00;;;;;;;26.88;11.82;;;;;;;;;;7392752;19;20014;-47
2021/10/03 05:06:27;;;;;;;15.02;10.25;;;;;;;;;;7393103;19;20031;-44
2021/10/03 05:08:55;;;;;;;15.73;10.75;;;;;;;;;;7392968;19;20034;-42
2021/10/03 05:11:22;;;;;;;13.68;9.00;;;;;;;;;;7390851;19;20510;-40
2021/10/03 05:13:49;;;;;;;14.50;9.73;;;;;;;;;;7395401;19;20042;-44
2021/10/03 05:16:17;;;;;;;25.48;12.68;;;;;;;;;;7392869;19;20499;-50
2021/10/03 05:18:44;;;;;;;22.17;11.52;;;;;;;;;;7392789;19;20015;-45
2021/10/03 05:21:11;;;;;;;19.73;10.68;;;;;;;;;;7392149;19;20046;-42
2021/10/03 05:23:39;;;;;;;19.50;9.77;;;;;;;;;;7392144;19;20006;-48
2021/10/03 05:26:06;;;;;;;19.00;12.20;;;;;;;;;;7392284;19;20010;-50
2021/10/03 05:28:34;;;;;;;24.52;13.38;;;;;;;;;;7391352;19;20002;-46
2021/10/03 05:31:02;;;;;;;141.68;47.20;;;;;;;;;;7392370;19;20019;-43
2021/10/03 05:33:29;;;;;;;92.07;37.00;;;;;;;;;;7391954;19;20514;-45
2021/10/03 05:35:57;;;;;;;35.58;18.88;;;;;;;;;;7391802;19;20018;-40
2021/10/03 05:38:24;;;;;;;31.70;16.35;;;;;;;;;;7392277;19;20014;-46
2021/10/03 05:40:52;;;;;;;21.88;12.23;;;;;;;;;;7391593;19;20022;-48
2021/10/03 05:43:20;;;;;;;17.23;10.45;;;;;;;;;;7391862;19;20006;-52
2021/10/03 05:45:48;;;;;;;17.23;11.23;;;;;;;;;;7391621;19;20010;-40
2021/10/03 05:48:16;;;;;;;14.32;10.05;;;;;;;;;;7392037;19;20017;-54
2021/10/03 05:50:44;;;;;;;17.88;11.93;;;;;;;;;;7391852;19;20034;-40
2021/10/03 05:53:11;;;;;;;15.90;10.65;;;;;;;;;;7391905;19;20035;-43
2021/10/03 05:55:39;;;;;;;14.50;10.10;;;;;;;;;;7391225;19;20514;-42
2021/10/03 05:58:06;;;;;;;18.80;11.85;;;;;;;;;;7391533;19;20236;-51
2021/10/03 06:00:33;;;;;;;18.25;12.23;;;;;;;;;;7390706;19;20026;-49
2021/10/03 06:03:01;;;;;;;23.85;12.90;;;;;;;;;;7389414;19;20014;-43
2021/10/03 06:05:28;;;;;;;16.40;11.75;;;;;;;;;;7390894;19;20015;-42
2021/10/03 06:07:56;;;;;;;15.38;9.57;;;;;;;;;;7394477;19;20018;-43
2021/10/03 06:10:24;;;;;;;15.30;9.48;;;;;;;;;;7397899;19;20014;-41
2021/10/03 06:12:52;;;;;;;12.40;8.82;;;;;;;;;;7398747;19;20011;-44
2021/10/03 06:15:20;;;;;;;74.30;32.47;;;;;;;;;;7398536;19;20014;-41
2021/10/03 06:17:47;;;;;;;41.25;23.27;;;;;;;;;;7398818;19;20523;-44
2021/10/03 06:20:14;;;;;;;33.13;19.00;;;;;;;;;;7397568;19;20014;-41
2021/10/03 06:22:45;;;;;;;27.40;16.20;;;;;;;;;;7398377;19;20010;-49
2021/10/03 06:25:14;;;;;;;21.45;14.25;;;;;;;;;;7398857;19;20027;-46
2021/10/03 06:27:43;;;;;;;30.70;20.25;;;;;;;;;;7398170;19;20034;-41
2021/10/03 06:30:15;;;;;;;24.60;15.48;;;;;;;;;;7397725;19;20007;-50
2021/10/03 06:32:43;;;;;;;17.58;12.23;;;;;;;;;;7398554;19;20015;-45
2021/10/03 06:35:11;;;;;;;17.92;12.68;;;;;;;;;;7397006;19;20013;-40
2021/10/03 06:37:38;;;;;;;19.00;14.63;;;;;;;;;;7398462;19;20537;-48
2021/10/03 06:40:06;;;;;;;92.55;47.72;;;;;;;;;;7395565;19;20006;-49
2021/10/03 06:42:34;;;;;;;52.88;28.92;;;;;;;;;;7397655;19;20024;-40
2021/10/03 06:45:02;;;;;;;31.27;21.30;;;;;;;;;;7396578;19;20367;-41
2021/10/03 06:47:30;;;;;;;28.35;19.02;;;;;;;;;;7397549;19;20034;-45
2021/10/03 06:49:57;;;;;;;21.25;16.15;;;;;;;;;;7397805;19;20011;-44
2021/10/03 06:52:25;;;;;;;23.25;16.83;;;;;;;;;;7397625;19;20046;-41
2021/10/03 06:54:52;;;;;;;23.20;16.58;;;;;;;;;;7397499;19;20022;-40
2021/10/03 06:57:20;;;;;;;24.45;17.35;;;;;;;;;;7396750;19;20007;-41
2021/10/03 06:59:47;;;;;;;24.33;17.52;;;;;;;;;;7397547;19;20014;-42
2021/10/03 07:02:23;;;;;;;292.23;109.63;;;;;;;;;;7395401;19;20002;-41
2021/10/03 07:04:53;;;;;;;67.03;33.72;;;;;;;;;;7397360;19;20003;-43
2021/10/03 07:07:20;;;;;;;23.73;17.38;;;;;;;;;;7396626;19;20074;-41
2021/10/03 07:09:48;;;;;;;24.20;16.92;;;;;;;;;;7396516;19;20034;-41
2021/10/03 07:12:16;;;;;;;21.95;15.60;;;;;;;;;;7397575;19;20015;-42
2021/10/03 07:14:43;;;;;;;18.45;14.23;;;;;;;;;;7401393;19;20380;-52
2021/10/03 07:17:12;;;;;;;22.67;14.20;;;;;;;;;;7396490;19;20137;-45
2021/10/03 07:19:40;;;;;;;20.65;13.75;;;;;;;;;;7395181;19;20077;-47
2021/10/03 07:22:08;;;;;;;19.95;12.93;;;;;;;;;;7395606;19;20007;-47
2021/10/03 07:24:36;;;;;;;14.13;10.25;;;;;;;;;;7396022;19;20102;-41
2021/10/03 07:27:05;;;;;;;18.73;12.07;;;;;;;;;;7396278;19;20025;-51
2021/10/03 07:29:34;;;;;;;15.30;11.52;;;;;;;;;;7396335;19;20007;-49
2021/10/03 07:32:03;;;;;;;16.90;10.90;;;;;;;;;;7395751;19;20014;-48
2021/10/03 07:34:30;;;;;;;17.35;11.43;;;;;;;;;;7395759;19;20369;-44
2021/10/03 07:36:58;;;;;;;14.88;11.45;;;;;;;;;;7395715;19;20021;-52
2021/10/03 07:39:26;;;;;;;14.65;10.45;;;;;;;;;;7396076;19;20470;-45
2021/10/03 07:41:53;;;;;;;12.95;10.27;;;;;;;;;;7393402;19;20018;-47
2021/10/03 07:44:21;;;;;;;118.15;54.58;;;;;;;;;;7396263;19;20048;-41
2021/10/03 07:46:48;;;;;;;28.02;17.08;;;;;;;;;;7395960;19;20035;-49
2021/10/03 07:49:16;;;;;;;15.57;10.80;;;;;;;;;;7394782;19;20070;-46
2021/10/03 07:51:43;;;;;;;14.88;9.82;;;;;;;;;;7395376;19;20042;-42
2021/10/03 07:54:11;;;;;;;12.15;8.77;;;;;;;;;;7395733;19;20045;-47
2021/10/03 07:56:40;;;;;;;11.88;8.75;;;;;;;;;;7394949;19;20007;-42
2021/10/03 07:59:08;;;;;;;10.13;7.78;;;;;;;;;;7395473;19;20018;-55
2021/10/03 08:01:36;;;;;;;11.80;8.80;;;;;;;;;;7393717;19;20014;-50
2021/10/03 08:04:04;;;;;;;13.45;8.00;;;;;;;;;;7394803;19;20010;-50
2021/10/03 08:06:32;;;;;;;11.18;8.15;;;;;;;;;;7393336;19;20022;-48
2021/10/03 08:09:00;;;;;;;9.25;7.20;;;;;;;;;;7394795;19;20023;-47
2021/10/03 08:11:28;;;;;;;12.95;8.07;;;;;;;;;;7392945;19;20351;-43
2021/10/03 08:13:55;;;;;;;11.80;7.35;;;;;;;;;;7396517;19;20017;-45
2021/10/03 08:16:23;;;;;;;11.70;7.45;;;;;;;;;;7394866;19;20023;-47
2021/10/03 08:18:51;;;;;;;9.50;7.07;;;;;;;;;;7395135;19;20474;-42
2021/10/03 08:21:18;;;;;;;9.63;7.47;;;;;;;;;;7393570;19;20013;-42
2021/10/03 08:23:46;;;;;;;10.10;8.13;;;;;;;;;;7394294;19;20042;-49
2021/10/03 08:26:13;;;;;;;11.18;7.65;;;;;;;;;;7394356;19;20017;-49
2021/10/03 08:28:41;;;;;;;11.60;7.82;;;;;;;;;;7394754;19;20014;-44
2021/10/03 08:31:10;;;;;;;10.55;7.10;;;;;;;;;;7391011;19;20010;-42
2021/10/03 08:33:38;;;;;;;10.90;7.07;;;;;;;;;;7394176;19;20011;-41
2021/10/03 08:36:06;;;;;;;11.75;6.85;;;;;;;;;;7394008;19;20056;-56
2021/10/03 08:38:34;;;;;;;12.50;7.00;;;;;;;;;;7394032;19;20019;-46
2021/10/03 08:41:02;;;;;;;8.98;6.20;;;;;;;;;;7393085;19;20011;-42
2021/10/03 08:43:32;;;;;;;10.52;6.68;;;;;;;;;;7393438;19;20086;-50
2021/10/03 08:46:16;;;;;;;10.15;6.60;;;;;;;;;;7393598;19;20101;-44
2021/10/03 08:48:44;;;;;;;7.90;5.85;;;;;;;;;;7393521;19;20481;-55
2021/10/03 08:51:13;;;;;;;111.65;56.45;;;;;;;;;;7394330;19;20364;-45
2021/10/03 08:53:40;;;;;;;25.50;13.38;;;;;;;;;;7393210;19;20340;-48
2021/10/03 08:56:08;;;;;;;10.95;6.85;;;;;;;;;;7393199;19;20035;-41
2021/10/03 08:58:35;;;;;;;9.00;6.07;;;;;;;;;;7393028;19;20006;-52
2021/10/03 09:01:04;;;;;;;8.20;5.18;;;;;;;;;;7392564;19;20470;-42
2021/10/03 09:03:32;;;;;;;8.00;5.80;;;;;;;;;;7390576;19;20086;-51
2021/10/03 09:05:59;;;;;;;10.15;5.72;;;;;;;;;;7392740;19;20014;-49
2021/10/03 09:08:30;;;;;;;18.05;5.55;;;;;;;;;;7392419;19;20010;-44
2021/10/03 09:11:08;;;;;;;8.98;5.72;;;;;;;;;;7391508;19;20098;-46
2021/10/03 09:13:36;;;;;;;13.07;6.18;;;;;;;;;;7394564;19;20014;-50
2021/10/03 09:16:23;;;;;;;10.77;5.43;;;;;;;;;;7392644;19;20010;-49
2021/10/03 09:18:59;;;;;;;11.55;5.30;;;;;;;;;;7392517;19;20038;-44
2021/10/03 09:21:30;;;;;;;8.93;5.13;;;;;;;;;;7392138;19;20007;-41
2021/10/03 09:24:02;;;;;;;9.32;5.57;;;;;;;;;;7392571;19;20010;-42
2021/10/03 09:26:30;;;;;;;7.18;5.10;;;;;;;;;;7392807;19;20028;-53
2021/10/03 09:28:58;;;;;;;164.25;79.75;;;;;;;;;;7392103;19;20082;-41
2021/10/03 09:31:25;;;;;;;18.15;10.38;;;;;;;;;;7395990;19;20025;-44
2021/10/03 09:33:55;;;;;;;7.40;5.22;;;;;;;;;;7392029;19;20010;-49
2021/10/03 09:36:28;;;;;;;8.88;5.13;;;;;;;;;;7392816;19;20038;-42
2021/10/03 09:39:02;;;;;;;6.95;4.50;;;;;;;;;;7392089;19;20007;-47
2021/10/03 09:41:33;;;;;;;17.42;5.10;;;;;;;;;;7390630;19;20015;-49
2021/10/03 09:44:08;;;;;;;10.27;4.40;;;;;;;;;;7391409;19;20015;-47
2021/10/03 09:46:43;;;;;;;5.88;3.85;;;;;;;;;;7391880;19;20041;-47
2021/10/03 09:49:15;;;;;;;10.38;4.82;;;;;;;;;;7391664;19;20595;-50
2021/10/03 09:51:45;;;;;;;17.17;6.90;;;;;;;;;;7391513;19;20010;-42
2021/10/03 09:54:16;;;;;;;114.68;49.60;;;;;;;;;;7391265;19;20006;-45
2021/10/03 09:56:44;;;;;;;13.38;7.07;;;;;;;;;;7391470;19;20082;-41
2021/10/03 09:59:12;;;;;;;7.93;4.25;;;;;;;;;;7390063;19;20392;-41
2021/10/03 10:01:46;;;;;;;6.82;3.83;;;;;;;;;;7390976;19;20019;-41
2021/10/03 10:04:18;;;;;;;7.27;4.20;;;;;;;;;;7390994;19;20030;-50
2021/10/03 10:06:48;;;;;;;6.32;4.50;;;;;;;;;;7391433;19;20259;-42
2021/10/03 10:09:19;;;;;;;5.75;4.00;;;;;;;;;;7392067;19;20031;-47
2021/10/03 10:12:11;;;;;;;7.55;3.97;;;;;;;;;;7389024;19;20007;-42
2021/10/03 10:14:43;;;;;;;8.40;4.05;;;;;;;;;;7394964;19;20025;-53
2021/10/03 10:17:30;;;;;;;10.13;4.05;;;;;;;;;;7390292;19;20373;-41
2021/10/03 10:19:59;;;;;;;8.13;4.22;;;;;;;;;;7391244;19;20010;-47
2021/10/03 10:22:29;;;;;;;7.00;3.85;;;;;;;;;;7389332;19;20014;-49
2021/10/03 10:25:16;;;;;;;6.20;4.20;;;;;;;;;;7390784;19;20082;-41
2021/10/03 10:27:44;;;;;;;5.88;3.90;;;;;;;;;;7390500;19;20027;-54
2021/10/03 10:30:16;;;;;;;77.90;40.95;;;;;;;;;;7390301;19;20010;-42
2021/10/03 10:32:59;;;;;;;12.77;8.23;;;;;;;;;;7390985;19;20474;-41
2021/10/03 10:35:32;;;;;;;5.50;3.83;;;;;;;;;;7390921;19;20010;-40
2021/10/03 10:38:03;;;;;;;6.45;4.05;;;;;;;;;;7390066;19;20471;-41
2021/10/03 10:40:34;;;;;;;7.53;3.95;;;;;;;;;;7390682;19;20011;-41
2021/10/03 10:43:04;;;;;;;8.43;4.05;;;;;;;;;;7387141;19;20014;-41
2021/10/03 10:45:35;;;;;;;8.77;3.67;;;;;;;;;;7390307;19;20018;-42
2021/10/03 10:48:08;;;;;;;7.72;3.88;;;;;;;;;;7390001;19;20017;-45
2021/10/03 10:50:54;;;;;;;;;;;;;;;;;;7391089;19;20538;-46
2021/10/03 10:53:30;;;;;;;9.23;3.78;;;;;;;;;;7390256;19;20188;-43
2021/10/03 10:56:04;;;;;;;9.45;3.55;;;;;;;;;;7397201;19;20003;-42
2021/10/03 10:58:34;;;;;;;11.05;3.80;;;;;;;;;;7397581;19;20010;-43
2021/10/03 11:01:05;;;;;;;5.28;3.25;;;;;;;;;;7396638;19;20073;-45
2021/10/03 11:03:42;;;;;;;180.82;100.28;;;;;;;;;;7397194;19;20034;-44
2021/10/03 11:06:18;;;;;;;7.75;4.13;;;;;;;;;;7396989;19;20027;-44
2021/10/03 11:09:09;;;;;;;5.20;3.33;;;;;;;;;;7396100;19;20037;-44
2021/10/03 11:11:39;;;;;;;11.02;3.80;;;;;;;;;;7390855;19;20042;-52
2021/10/03 11:14:06;;;;;;;5.88;3.35;;;;;;;;;;7399550;19;20086;-45
2021/10/03 11:16:46;;;;;;;5.45;3.17;;;;;;;;;;7397052;19;20007;-45
2021/10/03 11:19:22;;;;;;;7.57;3.33;;;;;;;;;;7396728;19;20029;-46
2021/10/03 11:21:54;;;;;;;7.80;4.10;;;;;;;;;;7395933;19;20006;-42
2021/10/03 11:25:07;;;;;;;6.97;3.33;;;;;;;;;;7396179;19;20018;-50
2021/10/03 11:27:35;;;;;;;7.53;3.63;;;;;;;;;;7395249;19;20031;-41
2021/10/03 11:30:03;;;;;;;9.52;3.47;;;;;;;;;;7396031;19;20036;-43
2021/10/03 11:32:37;;;;;;;5.40;3.35;;;;;;;;;;7396184;19;20010;-44
2021/10/03 11:35:08;;;;;;;8.13;3.97;;;;;;;;;;7396019;19;20017;-46
2021/10/03 11:37:45;;;;;;;7.85;3.55;;;;;;;;;;7395731;19;20038;-41
2021/10/03 11:40:17;;;;;;;8.00;3.88;;;;;;;;;;7396062;19;20011;-44
2021/10/03 11:42:55;;;;;;;6.90;3.53;;;;;;;;;;7393713;19;20514;-46
2021/10/03 11:45:26;;;;;;;9.55;3.88;;;;;;;;;;7394966;19;20010;-41
2021/10/03 11:47:59;;;;;;;5.90;3.55;;;;;;;;;;7395718;19;20014;-42
2021/10/03 11:50:32;;;;;;;7.28;3.75;;;;;;;;;;7394659;19;20033;-49
2021/10/03 11:53:25;;;;;;;5.93;3.45;;;;;;;;;;7395029;19;20010;-46
2021/10/03 11:56:04;;;;;;;7.45;3.90;;;;;;;;;;7395598;19;20006;-49
2021/10/03 11:58:40;;;;;;;7.93;3.47;;;;;;;;;;7395445;19;20019;-44
2021/10/03 12:01:08;;;;;;;5.78;3.42;;;;;;;;;;7395059;19;20023;-44
2021/10/03 12:03:47;;;;;;;7.72;3.35;;;;;;;;;;7392769;19;20010;-41
2021/10/03 12:06:17;;;;;;;5.10;3.17;;;;;;;;;;7394198;19;20010;-41
2021/10/03 12:08:46;;;;;;;5.80;3.85;;;;;;;;;;7394797;19;20011;-41
2021/10/03 12:11:14;;;;;;;6.88;3.65;;;;;;;;;;7393373;19;20486;-42
2021/10/03 12:13:58;;;;;;;8.30;4.40;;;;;;;;;;7397299;19;20011;-47
2021/10/03 12:16:26;;;;;;;5.10;3.30;;;;;;;;;;7394630;19;20022;-41
2021/10/03 12:19:05;;;;;;;6.50;3.10;;;;;;;;;;7394157;19;20021;-42
2021/10/03 12:21:34;;;;;;;9.25;4.10;;;;;;;;;;7394479;19;20042;-47
2021/10/03 12:24:04;;;;;;;7.60;3.45;;;;;;;;;;7395347;19;20498;-44
2021/10/03 12:26:46;;;;;;;7.07;3.22;;;;;;;;;;7394699;19;20536;-44
2021/10/03 12:29:23;;;;;;;9.40;3.40;;;;;;;;;;7393717;19;20026;-41
2021/10/03 12:32:13;;;;;;;7.78;3.53;;;;;;;;;;7393849;19;20509;-41
2021/10/03 12:34:42;;;;;;;6.03;3.50;;;;;;;;;;7394403;19;20025;-41
2021/10/03 12:37:32;;;;;;;5.40;3.88;;;;;;;;;;7393496;19;20014;-44
2021/10/03 12:40:01;;;;;;;7.38;3.80;;;;;;;;;;7393829;19;20652;-40
2021/10/03 12:42:30;;;;;;;4.55;3.28;;;;;;;;;;7393165;19;20014;-43
2021/10/03 12:45:00;;;;;;;7.90;3.13;;;;;;;;;;7393881;19;20018;-42
2021/10/03 12:47:27;;;;;;;6.38;3.38;;;;;;;;;;7393118;19;20590;-46
2021/10/03 12:49:55;;;;;;;6.90;2.88;;;;;;;;;;7393920;19;20081;-54
2021/10/03 12:52:24;;;;;;;6.47;3.25;;;;;;;;;;7395710;19;20018;-41
2021/10/03 12:54:51;;;;;;;7.13;3.90;;;;;;;;;;7393711;19;20010;-46
2021/10/03 12:57:19;;;;;;;7.80;3.15;;;;;;;;;;7392777;19;20026;-40
2021/10/03 12:59:46;;;;;;;9.00;3.35;;;;;;;;;;7392793;19;20015;-41
2021/10/03 13:02:13;;;;;;;4.55;2.90;;;;;;;;;;7392233;19;20010;-49
2021/10/03 13:05:01;;;;;;;5.60;3.38;;;;;;;;;;7392821;19;20470;-43
2021/10/03 13:07:31;;;;;;;6.88;3.22;;;;;;;;;;7392968;19;20010;-44
2021/10/03 13:09:58;;;;;;;6.40;3.20;;;;;;;;;;7392660;19;20018;-45
2021/10/03 13:12:26;;;;;;;5.93;3.40;;;;;;;;;;7393314;19;20022;-47
2021/10/03 13:14:53;;;;;;;8.60;3.38;;;;;;;;;;7392229;19;20062;-41
2021/10/03 13:17:21;;;;;;;8.30;3.03;;;;;;;;;;7390835;19;20014;-41
2021/10/03 13:19:48;;;;;;;11.68;3.20;;;;;;;;;;7393093;19;20041;-43
2021/10/03 13:22:15;;;;;;;5.32;3.00;;;;;;;;;;7391891;19;20340;-41
2021/10/03 13:24:43;;;;;;;5.97;3.60;;;;;;;;;;7391984;19;20014;-43
2021/10/03 13:27:10;;;;;;;7.00;3.05;;;;;;;;;;7393009;19;20025;-42
2021/10/03 13:29:37;;;;;;;7.15;3.78;;;;;;;;;;7392063;19;20046;-49
2021/10/03 13:32:05;;;;;;;5.25;3.10;;;;;;;;;;7392193;19;20030;-51
2021/10/03 13:34:33;;;;;;;8.98;3.45;;;;;;;;;;7392182;19;20014;-43
2021/10/03 13:37:02;;;;;;;6.45;3.85;;;;;;;;;;7391851;19;20077;-41
2021/10/03 13:39:29;;;;;;;6.32;3.25;;;;;;;;;;7390951;19;20015;-50
2021/10/03 13:41:56;;;;;;;6.18;3.63;;;;;;;;;;7392012;19;20027;-41
2021/10/03 13:44:24;;;;;;;8.68;3.38;;;;;;;;;;7391690;19;20007;-41
2021/10/03 13:46:51;;;;;;;8.05;3.50;;;;;;;;;;7391697;19;20376;-42
2021/10/03 13:49:18;;;;;;;5.55;3.10;;;;;;;;;;7391775;19;20015;-42
2021/10/03 13:51:47;;;;;;;6.55;3.92;;;;;;;;;;7391291;19;20006;-46
2021/10/03 13:54:15;;;;;;;7.43;3.53;;;;;;;;;;7391440;19;20475;-40
2021/10/03 13:56:42;;;;;;;6.78;4.03;;;;;;;;;;7391792;19;20027;-43
2021/10/03 13:59:09;;;;;;;6.45;3.90;;;;;;;;;;7391841;19;20010;-42
2021/10/03 14:01:37;;;;;;;5.00;3.13;;;;;;;;;;7391409;19;20025;-43
2021/10/03 14:04:04;;;;;;;6.05;3.17;;;;;;;;;;7389318;19;20010;-41
2021/10/03 14:06:33;;;;;;;8.98;4.45;;;;;;;;;;7391212;19;20014;-40
2021/10/03 14:09:03;;;;;;;6.43;4.18;;;;;;;;;;7391142;19;20592;-42
2021/10/03 14:11:30;;;;;;;7.55;4.15;;;;;;;;;;7389602;19;20038;-49
2021/10/03 14:13:58;;;;;;;7.72;3.97;;;;;;;;;;7394475;19;20010;-40
2021/10/03 14:16:25;;;;;;;6.40;3.80;;;;;;;;;;7391402;19;20006;-43
2021/10/03 14:18:53;;;;;;;8.82;3.40;;;;;;;;;;7391053;19;20025;-42
2021/10/03 14:21:20;;;;;;;8.60;4.60;;;;;;;;;;7391222;19;20019;-40
2021/10/03 14:23:48;;;;;;;9.73;5.10;;;;;;;;;;7388448;19;20455;-41
2021/10/03 14:26:16;;;;;;;7.40;4.13;;;;;;;;;;7390895;19;20010;-46
2021/10/03 14:28:43;;;;;;;6.20;3.88;;;;;;;;;;7394352;19;20018;-48
2021/10/03 14:31:12;;;;;;;6.28;3.70;;;;;;;;;;7398372;19;20010;-48
2021/10/03 14:33:39;;;;;;;5.82;3.83;;;;;;;;;;7398249;19;20090;-51
2021/10/03 14:36:07;;;;;;;4.78;3.22;;;;;;;;;;7398113;19;20011;-41
2021/10/03 14:38:34;;;;;;;6.32;3.67;;;;;;;;;;7398126;19;20709;-43
2021/10/03 14:41:02;;;;;;;5.45;3.30;;;;;;;;;;7397697;19;20022;-43
2021/10/03 14:43:30;;;;;;;5.57;3.33;;;;;;;;;;7395156;19;20010;-40